Terminal Aerodrome Forecast
Issued by NWS

Current Version | Previous Version | Graphics & Text | Print | Product List | Glossary On
Versions: 1 2 3 4 5 6 7 8 9 10 11 12 13 14 15 16 17 18 19 20
000
FTUS41 KILN 180500
TAFLUK
TAF
KLUK 180540Z 1806/1906 30005KT P6SM OVC020
     FM181700 30003KT P6SM BKN025 OVC120
     FM182000 29005KT P6SM SCT025 OVC060
     FM190100 00000KT P6SM OVC025=

USA.gov is the U.S. government's official web portal to all federal, state and local government web resources and services.